sensor_id;sensor_type;location;lat;lon;timestamp;pressure;altitude;pressure_sealevel;temperature;humidity
61119;BME280;51448;51.660;5.824;2022-07-03T00:00:52;101649.25;;;16.94;71.44
61119;BME280;51448;51.660;5.824;2022-07-03T00:03:19;101646.66;;;16.93;71.31
61119;BME280;51448;51.660;5.824;2022-07-03T00:05:47;101637.81;;;16.92;71.14
61119;BME280;51448;51.660;5.824;2022-07-03T00:08:15;101635.22;;;16.91;71.64
61119;BME280;51448;51.660;5.824;2022-07-03T00:10:42;101632.63;;;16.89;71.48
61119;BME280;51448;51.660;5.824;2022-07-03T00:13:11;101633.47;;;16.89;72.00
61119;BME280;51448;51.660;5.824;2022-07-03T00:15:38;101634.41;;;16.88;72.11
61119;BME280;51448;51.660;5.824;2022-07-03T00:18:06;101633.63;;;16.86;71.45
61119;BME280;51448;51.660;5.824;2022-07-03T00:20:39;101631.03;;;16.85;71.55
61119;BME280;51448;51.660;5.824;2022-07-03T00:23:15;101635.59;;;16.81;71.02
61119;BME280;51448;51.660;5.824;2022-07-03T00:25:44;101627.78;;;16.77;71.13
61119;BME280;51448;51.660;5.824;2022-07-03T00:28:12;101631.50;;;16.73;71.63
61119;BME280;51448;51.660;5.824;2022-07-03T00:30:40;101628.97;;;16.69;71.95
61119;BME280;51448;51.660;5.824;2022-07-03T00:33:13;101627.38;;;16.65;71.88
61119;BME280;51448;51.660;5.824;2022-07-03T00:35:42;101624.84;;;16.62;72.38
61119;BME280;51448;51.660;5.824;2022-07-03T00:38:11;101625.81;;;16.60;72.76
61119;BME280;51448;51.660;5.824;2022-07-03T00:40:39;101638.31;;;16.58;72.57
61119;BME280;51448;51.660;5.824;2022-07-03T00:43:06;101637.56;;;16.54;72.02
61119;BME280;51448;51.660;5.824;2022-07-03T00:45:39;101630.59;;;16.52;73.21
61119;BME280;51448;51.660;5.824;2022-07-03T00:48:15;101629.88;;;16.46;73.07
61119;BME280;51448;51.660;5.824;2022-07-03T00:50:46;101634.53;;;16.41;73.32
61119;BME280;51448;51.660;5.824;2022-07-03T00:53:28;101622.31;;;16.37;73.67
61119;BME280;51448;51.660;5.824;2022-07-03T00:56:00;101628.78;;;16.30;73.45
61119;BME280;51448;51.660;5.824;2022-07-03T00:58:31;101629.16;;;16.21;72.28
61119;BME280;51448;51.660;5.824;2022-07-03T01:01:01;101633.69;;;16.17;72.65
61119;BME280;51448;51.660;5.824;2022-07-03T01:03:32;101625.78;;;16.16;73.64
61119;BME280;51448;51.660;5.824;2022-07-03T01:06:13;101623.28;;;16.13;73.86
61119;BME280;51448;51.660;5.824;2022-07-03T01:08:48;101625.16;;;16.09;73.54
61119;BME280;51448;51.660;5.824;2022-07-03T01:16:59;101623.78;;;15.99;74.05
61119;BME280;51448;51.660;5.824;2022-07-03T01:19:39;101628.34;;;15.95;73.70
61119;BME280;51448;51.660;5.824;2022-07-03T01:28:20;101618.19;;;15.83;74.08
61119;BME280;51448;51.660;5.824;2022-07-03T01:30:53;101630.66;;;15.81;73.96
61119;BME280;51448;51.660;5.824;2022-07-03T01:33:26;101621.03;;;15.78;73.90
61119;BME280;51448;51.660;5.824;2022-07-03T01:38:29;101625.75;;;15.68;75.53
61119;BME280;51448;51.660;5.824;2022-07-03T01:40:59;101635.66;;;15.65;75.68
61119;BME280;51448;51.660;5.824;2022-07-03T01:43:32;101642.78;;;15.63;75.93
61119;BME280;51448;51.660;5.824;2022-07-03T01:46:03;101635.75;;;15.62;75.33
61119;BME280;51448;51.660;5.824;2022-07-03T01:48:33;101640.19;;;15.61;74.98
61119;BME280;51448;51.660;5.824;2022-07-03T01:51:02;101647.31;;;15.59;75.48
61119;BME280;51448;51.660;5.824;2022-07-03T01:53:30;101647.38;;;15.58;75.42
61119;BME280;51448;51.660;5.824;2022-07-03T01:55:59;101649.16;;;15.57;75.48
61119;BME280;51448;51.660;5.824;2022-07-03T01:58:29;101644.78;;;15.56;75.46
61119;BME280;51448;51.660;5.824;2022-07-03T02:01:01;101641.25;;;15.56;75.75
61119;BME280;51448;51.660;5.824;2022-07-03T02:03:35;101645.72;;;15.55;75.75
61119;BME280;51448;51.660;5.824;2022-07-03T02:09:03;101652.72;;;15.56;75.90
61119;BME280;51448;51.660;5.824;2022-07-03T02:11:51;101652.72;;;15.56;76.09
61119;BME280;51448;51.660;5.824;2022-07-03T02:14:23;101638.63;;;15.56;76.30
61119;BME280;51448;51.660;5.824;2022-07-03T02:17:13;101638.56;;;15.57;76.11
61119;BME280;51448;51.660;5.824;2022-07-03T02:20:00;101638.66;;;15.54;76.36
61119;BME280;51448;51.660;5.824;2022-07-03T02:22:32;101642.28;;;15.52;76.19
61119;BME280;51448;51.660;5.824;2022-07-03T02:25:04;101641.44;;;15.51;76.38
61119;BME280;51448;51.660;5.824;2022-07-03T02:30:48;101641.47;;;15.49;76.78
61119;BME280;51448;51.660;5.824;2022-07-03T02:33:25;101637.97;;;15.49;76.77
61119;BME280;51448;51.660;5.824;2022-07-03T02:35:58;101633.56;;;15.48;76.78
61119;BME280;51448;51.660;5.824;2022-07-03T02:38:26;101641.53;;;15.48;76.74
61119;BME280;51448;51.660;5.824;2022-07-03T02:41:09;101639.81;;;15.47;76.79
61119;BME280;51448;51.660;5.824;2022-07-03T02:43:43;101630.25;;;15.43;76.72
61119;BME280;51448;51.660;5.824;2022-07-03T02:49:40;101644.41;;;15.42;76.93
61119;BME280;51448;51.660;5.824;2022-07-03T02:55:45;101635.72;;;15.38;77.04
61119;BME280;51448;51.660;5.824;2022-07-03T03:01:12;101643.00;;;15.32;77.53
61119;BME280;51448;51.660;5.824;2022-07-03T03:07:02;101643.16;;;15.27;77.45
61119;BME280;51448;51.660;5.824;2022-07-03T03:09:44;101645.84;;;15.25;77.57
61119;BME280;51448;51.660;5.824;2022-07-03T03:12:15;101647.69;;;15.23;77.74
61119;BME280;51448;51.660;5.824;2022-07-03T03:14:54;101645.03;;;15.23;78.12
61119;BME280;51448;51.660;5.824;2022-07-03T03:17:42;101646.88;;;15.21;77.70
61119;BME280;51448;51.660;5.824;2022-07-03T03:20:16;101646.16;;;15.18;77.78
61119;BME280;51448;51.660;5.824;2022-07-03T03:23:09;101648.78;;;15.18;77.73
61119;BME280;51448;51.660;5.824;2022-07-03T03:25:42;101658.63;;;15.14;77.95
61119;BME280;51448;51.660;5.824;2022-07-03T03:28:11;101650.69;;;15.14;78.39
61119;BME280;51448;51.660;5.824;2022-07-03T03:30:40;101647.22;;;15.12;78.37
61119;BME280;51448;51.660;5.824;2022-07-03T03:33:09;101653.41;;;15.11;78.54
61119;BME280;51448;51.660;5.824;2022-07-03T03:35:38;101646.41;;;15.10;78.42
61119;BME280;51448;51.660;5.824;2022-07-03T03:38:06;101652.56;;;15.11;78.71
61119;BME280;51448;51.660;5.824;2022-07-03T03:40:34;101650.94;;;15.06;78.63
61119;BME280;51448;51.660;5.824;2022-07-03T03:43:03;101657.16;;;15.05;78.76
61119;BME280;51448;51.660;5.824;2022-07-03T03:45:31;101657.19;;;15.04;78.85
61119;BME280;51448;51.660;5.824;2022-07-03T03:47:58;101658.06;;;15.04;79.14
61119;BME280;51448;51.660;5.824;2022-07-03T03:50:26;101662.47;;;15.05;79.26
61119;BME280;51448;51.660;5.824;2022-07-03T03:52:54;101659.72;;;15.07;79.17
61119;BME280;51448;51.660;5.824;2022-07-03T03:55:21;101656.19;;;15.08;79.21
61119;BME280;51448;51.660;5.824;2022-07-03T03:57:49;101664.94;;;15.10;79.35
61119;BME280;51448;51.660;5.824;2022-07-03T04:00:16;101658.72;;;15.11;79.20
61119;BME280;51448;51.660;5.824;2022-07-03T04:02:44;101666.56;;;15.14;79.43
61119;BME280;51448;51.660;5.824;2022-07-03T04:05:12;101664.69;;;15.18;79.62
61119;BME280;51448;51.660;5.824;2022-07-03T04:07:39;101656.63;;;15.21;79.50
61119;BME280;51448;51.660;5.824;2022-07-03T04:10:07;101658.25;;;15.25;79.52
61119;BME280;51448;51.660;5.824;2022-07-03T04:12:35;101659.00;;;15.28;79.47
61119;BME280;51448;51.660;5.824;2022-07-03T04:15:03;101660.63;;;15.33;79.67
61119;BME280;51448;51.660;5.824;2022-07-03T04:17:31;101662.25;;;15.37;79.69
61119;BME280;51448;51.660;5.824;2022-07-03T04:19:58;101664.78;;;15.40;79.58
61119;BME280;51448;51.660;5.824;2022-07-03T04:22:26;101656.75;;;15.43;79.80
61119;BME280;51448;51.660;5.824;2022-07-03T04:24:53;101658.47;;;15.44;79.82
61119;BME280;51448;51.660;5.824;2022-07-03T04:27:20;101658.38;;;15.47;79.83
61119;BME280;51448;51.660;5.824;2022-07-03T04:30:10;101657.50;;;15.46;79.73
61119;BME280;51448;51.660;5.824;2022-07-03T04:32:38;101664.53;;;15.47;79.85
61119;BME280;51448;51.660;5.824;2022-07-03T04:35:06;101660.03;;;15.49;79.89
61119;BME280;51448;51.660;5.824;2022-07-03T04:37:35;101666.19;;;15.50;79.90
61119;BME280;51448;51.660;5.824;2022-07-03T04:40:02;101667.00;;;15.52;79.95
61119;BME280;51448;51.660;5.824;2022-07-03T04:42:30;101668.75;;;15.53;79.89
61119;BME280;51448;51.660;5.824;2022-07-03T04:45:04;101667.81;;;15.54;79.92
61119;BME280;51448;51.660;5.824;2022-07-03T04:47:33;101666.09;;;15.53;79.86
61119;BME280;51448;51.660;5.824;2022-07-03T04:50:00;101671.25;;;15.58;80.12
61119;BME280;51448;51.660;5.824;2022-07-03T04:52:28;101670.13;;;15.65;79.91
61119;BME280;51448;51.660;5.824;2022-07-03T04:54:57;101671.59;;;15.74;79.90
61119;BME280;51448;51.660;5.824;2022-07-03T04:57:24;101674.56;;;15.89;79.87
61119;BME280;51448;51.660;5.824;2022-07-03T04:59:52;101668.38;;;16.13;80.29
61119;BME280;51448;51.660;5.824;2022-07-03T05:02:19;101680.56;;;16.40;80.49
61119;BME280;51448;51.660;5.824;2022-07-03T05:04:47;101684.25;;;16.60;79.86
61119;BME280;51448;51.660;5.824;2022-07-03T05:07:15;101683.63;;;16.75;79.71
61119;BME280;51448;51.660;5.824;2022-07-03T05:09:42;101679.00;;;16.80;78.92
61119;BME280;51448;51.660;5.824;2022-07-03T05:12:10;101686.72;;;16.88;78.39
61119;BME280;51448;51.660;5.824;2022-07-03T05:14:38;101670.41;;;16.96;78.02
61119;BME280;51448;51.660;5.824;2022-07-03T05:17:05;101681.59;;;17.04;77.80
61119;BME280;51448;51.660;5.824;2022-07-03T05:19:33;101678.81;;;17.07;77.77
61119;BME280;51448;51.660;5.824;2022-07-03T05:22:01;101683.75;;;17.16;77.59
61119;BME280;51448;51.660;5.824;2022-07-03T05:24:28;101680.75;;;17.24;77.40
61119;BME280;51448;51.660;5.824;2022-07-03T05:26:55;101687.56;;;17.31;77.36
61119;BME280;51448;51.660;5.824;2022-07-03T05:29:25;101687.22;;;17.39;77.31
61119;BME280;51448;51.660;5.824;2022-07-03T05:31:52;101692.22;;;17.46;76.93
61119;BME280;51448;51.660;5.824;2022-07-03T05:34:20;101682.16;;;17.53;77.00
61119;BME280;51448;51.660;5.824;2022-07-03T05:36:48;101684.50;;;17.61;76.84
61119;BME280;51448;51.660;5.824;2022-07-03T05:39:16;101690.75;;;17.60;76.72
61119;BME280;51448;51.660;5.824;2022-07-03T05:42:02;101688.28;;;17.55;76.94
61119;BME280;51448;51.660;5.824;2022-07-03T05:44:30;101681.31;;;17.53;76.88
61119;BME280;51448;51.660;5.824;2022-07-03T05:46:57;101682.03;;;17.56;76.87
61119;BME280;51448;51.660;5.824;2022-07-03T05:49:25;101692.94;;;17.70;76.99
61119;BME280;51448;51.660;5.824;2022-07-03T05:51:52;101700.34;;;17.84;76.72
61119;BME280;51448;51.660;5.824;2022-07-03T05:54:20;101688.13;;;17.99;76.42
61119;BME280;51448;51.660;5.824;2022-07-03T05:56:47;101688.38;;;18.14;76.20
61119;BME280;51448;51.660;5.824;2022-07-03T05:59:15;101694.41;;;18.17;76.09
61119;BME280;51448;51.660;5.824;2022-07-03T06:01:43;101690.41;;;18.27;75.59
61119;BME280;51448;51.660;5.824;2022-07-03T06:04:10;101683.75;;;18.36;75.62
61119;BME280;51448;51.660;5.824;2022-07-03T06:06:38;101686.75;;;18.47;75.39
61119;BME280;51448;51.660;5.824;2022-07-03T06:09:05;101690.72;;;18.58;74.73
61119;BME280;51448;51.660;5.824;2022-07-03T06:11:33;101692.94;;;18.67;74.45
61119;BME280;51448;51.660;5.824;2022-07-03T06:14:00;101694.22;;;18.77;74.19
61119;BME280;51448;51.660;5.824;2022-07-03T06:16:28;101703.66;;;18.84;73.37
61119;BME280;51448;51.660;5.824;2022-07-03T06:18:56;101709.66;;;18.89;73.28
61119;BME280;51448;51.660;5.824;2022-07-03T06:21:23;101716.50;;;18.95;73.06
61119;BME280;51448;51.660;5.824;2022-07-03T06:23:55;101717.78;;;19.05;72.88
61119;BME280;51448;51.660;5.824;2022-07-03T06:26:23;101714.56;;;19.16;72.32
61119;BME280;51448;51.660;5.824;2022-07-03T06:28:51;101711.50;;;19.24;72.29
61119;BME280;51448;51.660;5.824;2022-07-03T06:31:19;101708.38;;;19.33;72.24
61119;BME280;51448;51.660;5.824;2022-07-03T06:33:47;101709.53;;;19.45;71.87
61119;BME280;51448;51.660;5.824;2022-07-03T06:36:14;101708.97;;;19.56;71.87
61119;BME280;51448;51.660;5.824;2022-07-03T06:38:41;101712.69;;;19.70;71.53
61119;BME280;51448;51.660;5.824;2022-07-03T06:41:09;101713.59;;;19.87;71.44
61119;BME280;51448;51.660;5.824;2022-07-03T06:43:37;101707.44;;;20.02;71.35
61119;BME280;51448;51.660;5.824;2022-07-03T06:46:06;101718.78;;;20.23;70.92
61119;BME280;51448;51.660;5.824;2022-07-03T06:48:33;101716.81;;;20.43;70.58
61119;BME280;51448;51.660;5.824;2022-07-03T06:51:01;101717.72;;;20.59;69.95
61119;BME280;51448;51.660;5.824;2022-07-03T06:53:28;101716.84;;;20.75;69.58
61119;BME280;51448;51.660;5.824;2022-07-03T06:55:56;101709.94;;;20.86;68.86
61119;BME280;51448;51.660;5.824;2022-07-03T06:58:23;101711.97;;;20.97;68.69
61119;BME280;51448;51.660;5.824;2022-07-03T07:00:51;101722.16;;;21.06;68.29
61119;BME280;51448;51.660;5.824;2022-07-03T07:03:18;101704.69;;;21.15;67.77
61119;BME280;51448;51.660;5.824;2022-07-03T07:05:46;101704.34;;;21.21;67.38
61119;BME280;51448;51.660;5.824;2022-07-03T07:08:13;101711.72;;;21.32;67.87
61119;BME280;51448;51.660;5.824;2022-07-03T07:10:41;101709.03;;;21.48;67.24
61119;BME280;51448;51.660;5.824;2022-07-03T07:13:08;101708.00;;;21.65;67.08
61119;BME280;51448;51.660;5.824;2022-07-03T07:15:36;101707.34;;;21.76;66.22
61119;BME280;51448;51.660;5.824;2022-07-03T07:18:04;101718.19;;;21.88;66.51
61119;BME280;51448;51.660;5.824;2022-07-03T07:20:31;101714.34;;;22.07;66.08
61119;BME280;51448;51.660;5.824;2022-07-03T07:22:59;101707.16;;;22.22;66.03
61119;BME280;51448;51.660;5.824;2022-07-03T07:25:26;101715.75;;;22.41;65.06
61119;BME280;51448;51.660;5.824;2022-07-03T07:27:54;101715.84;;;22.54;64.67
61119;BME280;51448;51.660;5.824;2022-07-03T07:30:21;101707.03;;;22.66;64.57
61119;BME280;51448;51.660;5.824;2022-07-03T07:32:49;101712.34;;;22.81;64.81
61119;BME280;51448;51.660;5.824;2022-07-03T07:35:20;101716.75;;;22.95;63.85
61119;BME280;51448;51.660;5.824;2022-07-03T07:37:48;101721.34;;;23.07;63.54
61119;BME280;51448;51.660;5.824;2022-07-03T07:40:16;101722.66;;;23.14;63.42
61119;BME280;51448;51.660;5.824;2022-07-03T07:42:43;101719.34;;;23.23;62.45
61119;BME280;51448;51.660;5.824;2022-07-03T07:45:11;101718.66;;;23.34;62.60
61119;BME280;51448;51.660;5.824;2022-07-03T07:47:38;101725.97;;;23.45;62.17
61119;BME280;51448;51.660;5.824;2022-07-03T07:50:06;101728.97;;;23.53;61.81
61119;BME280;51448;51.660;5.824;2022-07-03T07:52:34;101729.09;;;23.64;61.03
61119;BME280;51448;51.660;5.824;2022-07-03T07:55:03;101731.16;;;23.74;60.72
61119;BME280;51448;51.660;5.824;2022-07-03T07:57:39;101736.88;;;23.82;59.25
61119;BME280;51448;51.660;5.824;2022-07-03T08:00:16;101735.38;;;23.78;58.52
61119;BME280;51448;51.660;5.824;2022-07-03T08:02:47;101730.28;;;23.73;57.92
61119;BME280;51448;51.660;5.824;2022-07-03T08:05:33;101736.50;;;23.74;58.61
61119;BME280;51448;51.660;5.824;2022-07-03T08:08:16;101739.56;;;23.82;58.84
61119;BME280;51448;51.660;5.824;2022-07-03T08:13:15;101735.59;;;24.00;57.17
61119;BME280;51448;51.660;5.824;2022-07-03T08:15:45;101738.03;;;24.03;56.80
61119;BME280;51448;51.660;5.824;2022-07-03T08:18:14;101729.88;;;24.05;57.19
61119;BME280;51448;51.660;5.824;2022-07-03T08:20:41;101735.91;;;24.08;56.29
61119;BME280;51448;51.660;5.824;2022-07-03T08:23:09;101734.16;;;24.07;56.02
61119;BME280;51448;51.660;5.824;2022-07-03T08:25:37;101730.28;;;24.12;56.52
61119;BME280;51448;51.660;5.824;2022-07-03T08:28:04;101735.03;;;24.21;56.42
61119;BME280;51448;51.660;5.824;2022-07-03T08:30:32;101737.78;;;24.32;56.21
61119;BME280;51448;51.660;5.824;2022-07-03T08:33:00;101744.44;;;24.39;55.51
61119;BME280;51448;51.660;5.824;2022-07-03T08:35:28;101736.91;;;24.44;55.42
61119;BME280;51448;51.660;5.824;2022-07-03T08:37:56;101729.72;;;24.45;55.09
61119;BME280;51448;51.660;5.824;2022-07-03T08:40:24;101741.31;;;24.45;55.58
61119;BME280;51448;51.660;5.824;2022-07-03T08:42:57;101738.41;;;24.48;54.65
61119;BME280;51448;51.660;5.824;2022-07-03T08:45:25;101739.38;;;24.47;54.45
61119;BME280;51448;51.660;5.824;2022-07-03T08:47:55;101741.22;;;24.47;53.61
61119;BME280;51448;51.660;5.824;2022-07-03T08:50:25;101737.66;;;24.46;54.89
61119;BME280;51448;51.660;5.824;2022-07-03T08:52:53;101731.09;;;24.50;53.68
61119;BME280;51448;51.660;5.824;2022-07-03T08:55:20;101727.56;;;24.50;53.42
61119;BME280;51448;51.660;5.824;2022-07-03T08:57:48;101723.03;;;24.50;53.48
61119;BME280;51448;51.660;5.824;2022-07-03T09:00:18;101722.94;;;24.52;53.50
61119;BME280;51448;51.660;5.824;2022-07-03T09:02:48;101719.44;;;24.63;53.62
61119;BME280;51448;51.660;5.824;2022-07-03T09:05:17;101720.63;;;24.72;53.37
61119;BME280;51448;51.660;5.824;2022-07-03T09:07:45;101729.00;;;24.80;53.32
61119;BME280;51448;51.660;5.824;2022-07-03T09:10:16;101724.75;;;24.88;52.71
61119;BME280;51448;51.660;5.824;2022-07-03T09:12:47;101721.69;;;24.93;52.84
61119;BME280;51448;51.660;5.824;2022-07-03T09:15:16;101730.91;;;25.02;52.49
61119;BME280;51448;51.660;5.824;2022-07-03T09:18:13;101722.38;;;25.08;51.45
61119;BME280;51448;51.660;5.824;2022-07-03T09:20:41;101728.75;;;25.07;51.21
61119;BME280;51448;51.660;5.824;2022-07-03T09:23:20;101725.06;;;25.08;51.48
61119;BME280;51448;51.660;5.824;2022-07-03T09:25:51;101724.84;;;25.11;50.52
61119;BME280;51448;51.660;5.824;2022-07-03T09:31:13;101730.13;;;25.13;50.44
61119;BME280;51448;51.660;5.824;2022-07-03T09:33:54;101725.94;;;25.08;50.37
61119;BME280;51448;51.660;5.824;2022-07-03T09:36:37;101727.28;;;25.14;50.89
61119;BME280;51448;51.660;5.824;2022-07-03T09:39:22;101739.44;;;25.20;51.17
61119;BME280;51448;51.660;5.824;2022-07-03T09:41:55;101730.56;;;25.30;50.01
61119;BME280;51448;51.660;5.824;2022-07-03T09:44:42;101737.06;;;25.28;50.45
61119;BME280;51448;51.660;5.824;2022-07-03T09:49:58;101730.09;;;25.37;50.08
61119;BME280;51448;51.660;5.824;2022-07-03T09:52:31;101741.97;;;25.34;49.83
61119;BME280;51448;51.660;5.824;2022-07-03T09:55:20;101735.47;;;25.37;50.57
61119;BME280;51448;51.660;5.824;2022-07-03T10:00:19;101737.75;;;25.54;50.86
61119;BME280;51448;51.660;5.824;2022-07-03T10:03:05;101737.16;;;25.62;50.96
61119;BME280;51448;51.660;5.824;2022-07-03T10:05:34;101739.84;;;25.62;50.20
61119;BME280;51448;51.660;5.824;2022-07-03T10:08:13;101740.44;;;25.65;51.24
61119;BME280;51448;51.660;5.824;2022-07-03T10:10:47;101743.41;;;25.74;51.12
61119;BME280;51448;51.660;5.824;2022-07-03T10:13:16;101739.28;;;25.81;51.00
61119;BME280;51448;51.660;5.824;2022-07-03T10:15:44;101746.13;;;25.85;50.09
61119;BME280;51448;51.660;5.824;2022-07-03T10:18:13;101749.47;;;25.88;49.46
61119;BME280;51448;51.660;5.824;2022-07-03T10:20:47;101742.13;;;25.91;49.53
61119;BME280;51448;51.660;5.824;2022-07-03T10:23:20;101755.34;;;25.94;49.96
61119;BME280;51448;51.660;5.824;2022-07-03T10:25:49;101748.75;;;25.98;49.07
61119;BME280;51448;51.660;5.824;2022-07-03T10:28:18;101752.19;;;26.00;49.44
61119;BME280;51448;51.660;5.824;2022-07-03T10:30:47;101750.47;;;25.99;49.86
61119;BME280;51448;51.660;5.824;2022-07-03T10:33:15;101753.75;;;26.02;50.03
61119;BME280;51448;51.660;5.824;2022-07-03T10:35:48;101759.66;;;26.07;49.65
61119;BME280;51448;51.660;5.824;2022-07-03T10:38:40;101750.59;;;26.20;49.88
61119;BME280;51448;51.660;5.824;2022-07-03T10:41:20;101759.66;;;26.19;48.80
61119;BME280;51448;51.660;5.824;2022-07-03T10:44:14;101760.63;;;26.06;48.89
61119;BME280;51448;51.660;5.824;2022-07-03T10:47:00;101755.63;;;25.91;49.25
61119;BME280;51448;51.660;5.824;2022-07-03T10:49:34;101758.38;;;25.89;49.66
61119;BME280;51448;51.660;5.824;2022-07-03T10:52:03;101757.66;;;25.87;50.12
61119;BME280;51448;51.660;5.824;2022-07-03T10:54:33;101762.72;;;25.92;49.78
61119;BME280;51448;51.660;5.824;2022-07-03T10:57:05;101756.22;;;25.94;49.78
61119;BME280;51448;51.660;5.824;2022-07-03T11:13:03;101751.81;;;26.04;48.12
61119;BME280;51448;51.660;5.824;2022-07-03T11:18:26;101753.03;;;26.23;47.94
61119;BME280;51448;51.660;5.824;2022-07-03T11:26:22;101747.41;;;26.15;47.67
61119;BME280;51448;51.660;5.824;2022-07-03T11:28:51;101748.84;;;25.96;48.00
61119;BME280;51448;51.660;5.824;2022-07-03T11:31:22;101748.19;;;25.70;46.63
61119;BME280;51448;51.660;5.824;2022-07-03T11:41:22;101749.81;;;25.13;47.78
61119;BME280;51448;51.660;5.824;2022-07-03T11:44:00;101746.09;;;25.03;48.18
61119;BME280;51448;51.660;5.824;2022-07-03T11:46:31;101737.63;;;24.96;48.77
61119;BME280;51448;51.660;5.824;2022-07-03T11:49:12;101743.75;;;24.98;48.89
61119;BME280;51448;51.660;5.824;2022-07-03T11:51:44;101746.28;;;24.88;49.30
61119;BME280;51448;51.660;5.824;2022-07-03T11:54:22;101743.69;;;24.87;49.48
61119;BME280;51448;51.660;5.824;2022-07-03T11:56:50;101742.59;;;24.89;49.43
61119;BME280;51448;51.660;5.824;2022-07-03T11:59:18;101736.34;;;24.89;49.59
61119;BME280;51448;51.660;5.824;2022-07-03T12:01:50;101741.28;;;24.95;49.82
61119;BME280;51448;51.660;5.824;2022-07-03T12:04:20;101750.72;;;25.01;49.96
61119;BME280;51448;51.660;5.824;2022-07-03T12:06:58;101747.06;;;25.02;49.55
61119;BME280;51448;51.660;5.824;2022-07-03T12:09:32;101740.81;;;25.01;49.01
61119;BME280;51448;51.660;5.824;2022-07-03T12:14:47;101735.09;;;25.30;49.78
61119;BME280;51448;51.660;5.824;2022-07-03T12:17:18;101736.53;;;25.58;49.23
61119;BME280;51448;51.660;5.824;2022-07-03T12:19:56;101733.25;;;25.66;48.43
61119;BME280;51448;51.660;5.824;2022-07-03T12:22:36;101727.88;;;25.77;48.08
61119;BME280;51448;51.660;5.824;2022-07-03T12:25:13;101726.44;;;25.96;47.22
61119;BME280;51448;51.660;5.824;2022-07-03T12:27:44;101736.38;;;26.06;47.09
61119;BME280;51448;51.660;5.824;2022-07-03T12:30:17;101732.94;;;26.04;46.84
61119;BME280;51448;51.660;5.824;2022-07-03T12:32:54;101740.13;;;25.81;46.82
61119;BME280;51448;51.660;5.824;2022-07-03T12:35:25;101730.03;;;25.61;46.65
61119;BME280;51448;51.660;5.824;2022-07-03T12:37:54;101726.44;;;25.38;46.95
61119;BME280;51448;51.660;5.824;2022-07-03T12:40:22;101736.84;;;25.18;47.11
61119;BME280;51448;51.660;5.824;2022-07-03T12:42:55;101736.28;;;25.02;47.50
61119;BME280;51448;51.660;5.824;2022-07-03T12:45:25;101732.47;;;24.93;47.41
61119;BME280;51448;51.660;5.824;2022-07-03T12:48:03;101735.72;;;25.09;48.12
61119;BME280;51448;51.660;5.824;2022-07-03T12:50:49;101729.97;;;25.14;48.77
61119;BME280;51448;51.660;5.824;2022-07-03T12:53:29;101729.34;;;25.35;48.67
61119;BME280;51448;51.660;5.824;2022-07-03T12:56:06;101728.03;;;25.40;48.92
61119;BME280;51448;51.660;5.824;2022-07-03T12:58:36;101729.41;;;25.46;48.01
61119;BME280;51448;51.660;5.824;2022-07-03T13:01:31;101721.69;;;25.41;47.63
61119;BME280;51448;51.660;5.824;2022-07-03T13:04:08;101719.78;;;25.30;48.20
61119;BME280;51448;51.660;5.824;2022-07-03T13:06:41;101731.28;;;25.21;48.51
61119;BME280;51448;51.660;5.824;2022-07-03T13:09:09;101730.63;;;25.18;47.94
61119;BME280;51448;51.660;5.824;2022-07-03T13:11:39;101737.69;;;25.32;48.26
61119;BME280;51448;51.660;5.824;2022-07-03T13:14:16;101734.31;;;25.52;47.63
61119;BME280;51448;51.660;5.824;2022-07-03T13:16:50;101730.50;;;25.43;46.54
61119;BME280;51448;51.660;5.824;2022-07-03T13:19:25;101734.53;;;25.38;47.09
61119;BME280;51448;51.660;5.824;2022-07-03T13:21:55;101722.75;;;25.39;47.53
61119;BME280;51448;51.660;5.824;2022-07-03T13:24:24;101732.47;;;25.53;46.85
61119;BME280;51448;51.660;5.824;2022-07-03T13:26:53;101732.84;;;25.48;46.67
61119;BME280;51448;51.660;5.824;2022-07-03T13:29:22;101736.22;;;25.39;46.41
61119;BME280;51448;51.660;5.824;2022-07-03T13:31:52;101735.34;;;25.27;46.58
61119;BME280;51448;51.660;5.824;2022-07-03T13:34:21;101731.72;;;25.15;46.80
61119;BME280;51448;51.660;5.824;2022-07-03T13:36:49;101740.25;;;25.09;47.01
61119;BME280;51448;51.660;5.824;2022-07-03T13:39:17;101728.56;;;24.97;46.82
61119;BME280;51448;51.660;5.824;2022-07-03T13:41:44;101730.22;;;24.87;47.05
61119;BME280;51448;51.660;5.824;2022-07-03T13:44:12;101731.53;;;24.81;46.89
61119;BME280;51448;51.660;5.824;2022-07-03T13:46:40;101735.22;;;24.80;47.52
61119;BME280;51448;51.660;5.824;2022-07-03T13:49:07;101735.97;;;24.82;47.47
61119;BME280;51448;51.660;5.824;2022-07-03T13:51:35;101735.03;;;24.95;47.94
61119;BME280;51448;51.660;5.824;2022-07-03T13:54:02;101729.22;;;25.25;47.77
61119;BME280;51448;51.660;5.824;2022-07-03T13:56:30;101736.84;;;25.31;46.26
61119;BME280;51448;51.660;5.824;2022-07-03T13:58:57;101725.72;;;25.47;46.13
61119;BME280;51448;51.660;5.824;2022-07-03T14:01:26;101737.91;;;25.64;45.98
61119;BME280;51448;51.660;5.824;2022-07-03T14:03:54;101738.28;;;25.82;45.68
61119;BME280;51448;51.660;5.824;2022-07-03T14:06:21;101732.09;;;25.93;44.02
61119;BME280;51448;51.660;5.824;2022-07-03T14:08:49;101726.56;;;25.94;43.09
61119;BME280;51448;51.660;5.824;2022-07-03T14:11:17;101725.09;;;25.90;43.00
61119;BME280;51448;51.660;5.824;2022-07-03T14:13:44;101725.22;;;26.00;43.85
61119;BME280;51448;51.660;5.824;2022-07-03T14:16:12;101721.94;;;26.07;42.62
61119;BME280;51448;51.660;5.824;2022-07-03T14:18:40;101727.44;;;26.06;42.05
61119;BME280;51448;51.660;5.824;2022-07-03T14:21:07;101728.28;;;26.06;42.30
61119;BME280;51448;51.660;5.824;2022-07-03T14:23:35;101725.59;;;26.18;42.73
61119;BME280;51448;51.660;5.824;2022-07-03T14:26:03;101719.84;;;26.34;41.80